sensor_id;sensor_type;location;lat;lon;timestamp;temperature;humidity
53978;DHT22;39886;47.984;-1.586;2023-10-08T00:02:09;19.90;66.60
53978;DHT22;39886;47.984;-1.586;2023-10-08T00:04:35;19.90;66.60
53978;DHT22;39886;47.984;-1.586;2023-10-08T00:07:04;19.90;66.60
53978;DHT22;39886;47.984;-1.586;2023-10-08T00:09:33;19.90;66.70
53978;DHT22;39886;47.984;-1.586;2023-10-08T00:12:02;19.90;66.70
53978;DHT22;39886;47.984;-1.586;2023-10-08T00:14:28;19.90;66.70
53978;DHT22;39886;47.984;-1.586;2023-10-08T00:16:54;19.80;66.70
53978;DHT22;39886;47.984;-1.586;2023-10-08T00:19:19;19.80;66.70
53978;DHT22;39886;47.984;-1.586;2023-10-08T00:21:46;19.80;66.70
53978;DHT22;39886;47.984;-1.586;2023-10-08T00:24:13;19.80;66.70
53978;DHT22;39886;47.984;-1.586;2023-10-08T00:26:39;19.80;66.70
53978;DHT22;39886;47.984;-1.586;2023-10-08T00:29:08;19.80;66.80
53978;DHT22;39886;47.984;-1.586;2023-10-08T00:31:46;19.80;66.70
53978;DHT22;39886;47.984;-1.586;2023-10-08T00:34:14;19.80;66.80
53978;DHT22;39886;47.984;-1.586;2023-10-08T00:36:41;19.80;66.80
53978;DHT22;39886;47.984;-1.586;2023-10-08T00:39:07;19.80;66.90
53978;DHT22;39886;47.984;-1.586;2023-10-08T00:41:39;19.80;66.90
53978;DHT22;39886;47.984;-1.586;2023-10-08T00:44:08;19.80;66.90
53978;DHT22;39886;47.984;-1.586;2023-10-08T00:46:33;19.80;66.90
53978;DHT22;39886;47.984;-1.586;2023-10-08T00:49:05;19.80;66.90
53978;DHT22;39886;47.984;-1.586;2023-10-08T00:51:53;19.80;66.90
53978;DHT22;39886;47.984;-1.586;2023-10-08T00:54:34;19.80;66.90
53978;DHT22;39886;47.984;-1.586;2023-10-08T00:57:13;19.70;66.90
53978;DHT22;39886;47.984;-1.586;2023-10-08T00:59:43;19.70;66.90
53978;DHT22;39886;47.984;-1.586;2023-10-08T01:02:15;19.70;66.90
53978;DHT22;39886;47.984;-1.586;2023-10-08T01:04:42;19.70;67.00
53978;DHT22;39886;47.984;-1.586;2023-10-08T01:07:10;19.70;67.00
53978;DHT22;39886;47.984;-1.586;2023-10-08T01:09:41;19.70;67.00
53978;DHT22;39886;47.984;-1.586;2023-10-08T01:14:54;19.70;67.10
53978;DHT22;39886;47.984;-1.586;2023-10-08T01:17:23;19.70;67.10
53978;DHT22;39886;47.984;-1.586;2023-10-08T01:19:57;19.70;67.10
53978;DHT22;39886;47.984;-1.586;2023-10-08T01:22:34;19.70;67.10
53978;DHT22;39886;47.984;-1.586;2023-10-08T01:24:59;19.70;67.20
53978;DHT22;39886;47.984;-1.586;2023-10-08T01:27:29;19.70;67.20
53978;DHT22;39886;47.984;-1.586;2023-10-08T01:29:55;19.70;67.20
53978;DHT22;39886;47.984;-1.586;2023-10-08T01:32:33;19.70;67.20
53978;DHT22;39886;47.984;-1.586;2023-10-08T01:34:59;19.60;67.10
53978;DHT22;39886;47.984;-1.586;2023-10-08T01:37:25;19.60;67.20
53978;DHT22;39886;47.984;-1.586;2023-10-08T01:39:52;19.60;67.20
53978;DHT22;39886;47.984;-1.586;2023-10-08T01:42:17;19.60;67.20
53978;DHT22;39886;47.984;-1.586;2023-10-08T01:44:46;19.60;67.20
53978;DHT22;39886;47.984;-1.586;2023-10-08T01:47:13;19.60;67.30
53978;DHT22;39886;47.984;-1.586;2023-10-08T01:49:39;19.60;67.30
53978;DHT22;39886;47.984;-1.586;2023-10-08T01:52:07;19.60;67.30
53978;DHT22;39886;47.984;-1.586;2023-10-08T01:54:38;19.60;67.30
53978;DHT22;39886;47.984;-1.586;2023-10-08T01:57:05;19.60;67.30
53978;DHT22;39886;47.984;-1.586;2023-10-08T01:59:31;19.60;67.30
53978;DHT22;39886;47.984;-1.586;2023-10-08T02:01:58;19.60;67.30
53978;DHT22;39886;47.984;-1.586;2023-10-08T02:04:23;19.60;67.30
53978;DHT22;39886;47.984;-1.586;2023-10-08T02:06:49;19.60;67.30
53978;DHT22;39886;47.984;-1.586;2023-10-08T02:09:14;19.60;67.30
53978;DHT22;39886;47.984;-1.586;2023-10-08T02:11:48;19.60;67.40
53978;DHT22;39886;47.984;-1.586;2023-10-08T02:14:21;19.60;67.40
53978;DHT22;39886;47.984;-1.586;2023-10-08T02:16:48;19.60;67.40
53978;DHT22;39886;47.984;-1.586;2023-10-08T02:19:14;19.60;67.40
53978;DHT22;39886;47.984;-1.586;2023-10-08T02:21:43;19.60;67.40
53978;DHT22;39886;47.984;-1.586;2023-10-08T02:24:11;19.60;67.40
53978;DHT22;39886;47.984;-1.586;2023-10-08T02:26:38;19.50;67.40
53978;DHT22;39886;47.984;-1.586;2023-10-08T02:29:04;19.50;67.40
53978;DHT22;39886;47.984;-1.586;2023-10-08T02:31:41;19.50;67.50
53978;DHT22;39886;47.984;-1.586;2023-10-08T02:34:08;19.50;67.50
53978;DHT22;39886;47.984;-1.586;2023-10-08T02:36:37;19.50;67.40
53978;DHT22;39886;47.984;-1.586;2023-10-08T02:39:03;19.50;67.50
53978;DHT22;39886;47.984;-1.586;2023-10-08T02:41:51;19.50;67.50
53978;DHT22;39886;47.984;-1.586;2023-10-08T02:44:18;19.50;67.50
53978;DHT22;39886;47.984;-1.586;2023-10-08T02:46:44;19.50;67.50
53978;DHT22;39886;47.984;-1.586;2023-10-08T02:49:12;19.50;67.50
53978;DHT22;39886;47.984;-1.586;2023-10-08T02:51:38;19.50;68.20
53978;DHT22;39886;47.984;-1.586;2023-10-08T02:54:04;19.50;67.50
53978;DHT22;39886;47.984;-1.586;2023-10-08T02:56:31;19.50;67.50
53978;DHT22;39886;47.984;-1.586;2023-10-08T02:58:57;19.50;67.50
53978;DHT22;39886;47.984;-1.586;2023-10-08T03:01:23;19.50;67.60
53978;DHT22;39886;47.984;-1.586;2023-10-08T03:03:51;19.50;67.60
53978;DHT22;39886;47.984;-1.586;2023-10-08T03:06:19;19.50;67.60
53978;DHT22;39886;47.984;-1.586;2023-10-08T03:08:45;19.50;67.50
53978;DHT22;39886;47.984;-1.586;2023-10-08T03:11:13;19.50;67.60
53978;DHT22;39886;47.984;-1.586;2023-10-08T03:13:44;19.50;67.60
53978;DHT22;39886;47.984;-1.586;2023-10-08T03:16:14;19.50;67.60
53978;DHT22;39886;47.984;-1.586;2023-10-08T03:18:40;19.50;67.60
53978;DHT22;39886;47.984;-1.586;2023-10-08T03:21:15;19.50;67.60
53978;DHT22;39886;47.984;-1.586;2023-10-08T03:23:48;19.50;67.60
53978;DHT22;39886;47.984;-1.586;2023-10-08T03:26:15;19.40;67.60
53978;DHT22;39886;47.984;-1.586;2023-10-08T03:28:56;19.40;67.50
53978;DHT22;39886;47.984;-1.586;2023-10-08T03:31:24;19.40;67.60
53978;DHT22;39886;47.984;-1.586;2023-10-08T03:34:13;19.40;67.60
53978;DHT22;39886;47.984;-1.586;2023-10-08T03:36:40;19.40;68.30
53978;DHT22;39886;47.984;-1.586;2023-10-08T03:39:10;19.40;67.60
53978;DHT22;39886;47.984;-1.586;2023-10-08T03:41:42;19.40;67.60
53978;DHT22;39886;47.984;-1.586;2023-10-08T03:44:17;19.40;67.60
53978;DHT22;39886;47.984;-1.586;2023-10-08T03:46:42;19.40;67.60
53978;DHT22;39886;47.984;-1.586;2023-10-08T03:49:08;19.40;67.70
53978;DHT22;39886;47.984;-1.586;2023-10-08T03:52:00;19.40;67.70
53978;DHT22;39886;47.984;-1.586;2023-10-08T03:54:26;19.40;67.60
53978;DHT22;39886;47.984;-1.586;2023-10-08T03:57:01;19.40;67.70
53978;DHT22;39886;47.984;-1.586;2023-10-08T03:59:29;19.40;67.70
53978;DHT22;39886;47.984;-1.586;2023-10-08T04:02:00;19.40;67.70
53978;DHT22;39886;47.984;-1.586;2023-10-08T04:04:42;19.40;67.70
53978;DHT22;39886;47.984;-1.586;2023-10-08T04:07:19;19.40;67.70
53978;DHT22;39886;47.984;-1.586;2023-10-08T04:10:05;19.40;67.80
53978;DHT22;39886;47.984;-1.586;2023-10-08T04:12:31;19.40;67.70
53978;DHT22;39886;47.984;-1.586;2023-10-08T04:15:03;19.40;67.70
53978;DHT22;39886;47.984;-1.586;2023-10-08T04:17:33;19.40;67.70
53978;DHT22;39886;47.984;-1.586;2023-10-08T04:20:12;19.40;67.70
53978;DHT22;39886;47.984;-1.586;2023-10-08T04:23:02;19.40;67.80
53978;DHT22;39886;47.984;-1.586;2023-10-08T04:25:28;19.40;67.80
53978;DHT22;39886;47.984;-1.586;2023-10-08T04:27:54;19.40;67.80
53978;DHT22;39886;47.984;-1.586;2023-10-08T04:30:32;19.40;67.80
53978;DHT22;39886;47.984;-1.586;2023-10-08T04:33:02;19.40;67.80
53978;DHT22;39886;47.984;-1.586;2023-10-08T04:35:34;19.40;67.80
53978;DHT22;39886;47.984;-1.586;2023-10-08T04:38:22;19.40;67.80
53978;DHT22;39886;47.984;-1.586;2023-10-08T04:40:48;19.40;67.90
53978;DHT22;39886;47.984;-1.586;2023-10-08T04:43:17;19.40;67.90
53978;DHT22;39886;47.984;-1.586;2023-10-08T04:45:56;19.30;67.80
53978;DHT22;39886;47.984;-1.586;2023-10-08T04:48:22;19.40;68.50
53978;DHT22;39886;47.984;-1.586;2023-10-08T04:50:52;19.40;67.90
53978;DHT22;39886;47.984;-1.586;2023-10-08T04:53:26;19.30;67.80
53978;DHT22;39886;47.984;-1.586;2023-10-08T04:56:05;19.40;67.90
53978;DHT22;39886;47.984;-1.586;2023-10-08T04:58:32;19.30;67.90
53978;DHT22;39886;47.984;-1.586;2023-10-08T05:01:06;19.30;67.80
53978;DHT22;39886;47.984;-1.586;2023-10-08T05:03:52;19.30;67.80
53978;DHT22;39886;47.984;-1.586;2023-10-08T05:06:33;19.30;67.90
53978;DHT22;39886;47.984;-1.586;2023-10-08T05:09:02;19.30;67.90
53978;DHT22;39886;47.984;-1.586;2023-10-08T05:11:51;19.30;67.90
53978;DHT22;39886;47.984;-1.586;2023-10-08T05:16:58;19.30;67.90
53978;DHT22;39886;47.984;-1.586;2023-10-08T05:19:50;19.30;67.90
53978;DHT22;39886;47.984;-1.586;2023-10-08T05:22:41;19.30;67.90
53978;DHT22;39886;47.984;-1.586;2023-10-08T05:25:10;19.30;68.00
53978;DHT22;39886;47.984;-1.586;2023-10-08T05:27:52;19.20;68.00
53978;DHT22;39886;47.984;-1.586;2023-10-08T05:30:18;19.30;68.00
53978;DHT22;39886;47.984;-1.586;2023-10-08T05:33:03;19.30;68.00
53978;DHT22;39886;47.984;-1.586;2023-10-08T05:35:29;19.20;68.00
53978;DHT22;39886;47.984;-1.586;2023-10-08T05:38:06;19.30;68.00
53978;DHT22;39886;47.984;-1.586;2023-10-08T05:40:49;19.20;68.00
53978;DHT22;39886;47.984;-1.586;2023-10-08T05:43:24;19.20;68.00
53978;DHT22;39886;47.984;-1.586;2023-10-08T05:48:56;19.20;68.10
53978;DHT22;39886;47.984;-1.586;2023-10-08T05:51:34;19.20;68.10
53978;DHT22;39886;47.984;-1.586;2023-10-08T05:54:12;19.20;68.00
53978;DHT22;39886;47.984;-1.586;2023-10-08T05:57:05;19.20;68.10
53978;DHT22;39886;47.984;-1.586;2023-10-08T05:59:37;19.20;68.20
53978;DHT22;39886;47.984;-1.586;2023-10-08T06:02:25;19.20;68.10
53978;DHT22;39886;47.984;-1.586;2023-10-08T06:04:54;19.20;68.20
53978;DHT22;39886;47.984;-1.586;2023-10-08T06:07:36;19.10;68.10
53978;DHT22;39886;47.984;-1.586;2023-10-08T06:10:14;19.20;68.20
53978;DHT22;39886;47.984;-1.586;2023-10-08T06:15:37;19.20;68.10
53978;DHT22;39886;47.984;-1.586;2023-10-08T06:18:24;19.10;68.10
53978;DHT22;39886;47.984;-1.586;2023-10-08T06:23:21;19.10;68.10
53978;DHT22;39886;47.984;-1.586;2023-10-08T06:25:50;19.20;68.20
53978;DHT22;39886;47.984;-1.586;2023-10-08T06:28:22;19.10;68.10
53978;DHT22;39886;47.984;-1.586;2023-10-08T06:30:51;19.10;68.80
53978;DHT22;39886;47.984;-1.586;2023-10-08T06:33:21;19.10;68.10
53978;DHT22;39886;47.984;-1.586;2023-10-08T06:35:47;19.10;68.10
53978;DHT22;39886;47.984;-1.586;2023-10-08T06:38:37;19.10;68.10
53978;DHT22;39886;47.984;-1.586;2023-10-08T06:41:04;19.10;68.10
53978;DHT22;39886;47.984;-1.586;2023-10-08T06:43:39;19.10;68.10
53978;DHT22;39886;47.984;-1.586;2023-10-08T06:46:08;19.10;68.10
53978;DHT22;39886;47.984;-1.586;2023-10-08T06:48:33;19.10;68.10
53978;DHT22;39886;47.984;-1.586;2023-10-08T06:51:00;19.10;68.10
53978;DHT22;39886;47.984;-1.586;2023-10-08T06:53:33;19.10;68.80
53978;DHT22;39886;47.984;-1.586;2023-10-08T06:55:59;19.10;68.10
53978;DHT22;39886;47.984;-1.586;2023-10-08T06:58:30;19.10;68.10
53978;DHT22;39886;47.984;-1.586;2023-10-08T07:00:57;19.10;68.20
53978;DHT22;39886;47.984;-1.586;2023-10-08T07:03:24;19.10;68.10
53978;DHT22;39886;47.984;-1.586;2023-10-08T07:05:50;19.10;68.10
53978;DHT22;39886;47.984;-1.586;2023-10-08T07:08:27;19.10;68.10
53978;DHT22;39886;47.984;-1.586;2023-10-08T07:10:54;19.10;68.10
53978;DHT22;39886;47.984;-1.586;2023-10-08T07:13:22;19.10;68.10
53978;DHT22;39886;47.984;-1.586;2023-10-08T07:15:51;19.10;68.10
53978;DHT22;39886;47.984;-1.586;2023-10-08T07:18:17;19.10;68.10
53978;DHT22;39886;47.984;-1.586;2023-10-08T07:20:52;19.10;68.10
53978;DHT22;39886;47.984;-1.586;2023-10-08T07:23:27;19.20;68.20
53978;DHT22;39886;47.984;-1.586;2023-10-08T07:26:00;19.10;68.10
53978;DHT22;39886;47.984;-1.586;2023-10-08T07:28:40;19.20;68.10
53978;DHT22;39886;47.984;-1.586;2023-10-08T07:31:14;19.10;68.10
53978;DHT22;39886;47.984;-1.586;2023-10-08T07:33:46;19.20;68.10
53978;DHT22;39886;47.984;-1.586;2023-10-08T07:36:12;19.20;68.10
53978;DHT22;39886;47.984;-1.586;2023-10-08T07:38:42;19.20;68.10
53978;DHT22;39886;47.984;-1.586;2023-10-08T07:41:11;19.20;68.10
53978;DHT22;39886;47.984;-1.586;2023-10-08T07:43:48;19.20;68.00
53978;DHT22;39886;47.984;-1.586;2023-10-08T07:46:26;19.20;68.10
53978;DHT22;39886;47.984;-1.586;2023-10-08T07:48:52;19.20;68.00
53978;DHT22;39886;47.984;-1.586;2023-10-08T07:51:17;19.20;68.00
53978;DHT22;39886;47.984;-1.586;2023-10-08T07:53:52;19.20;68.00
53978;DHT22;39886;47.984;-1.586;2023-10-08T07:56:23;19.30;68.10
53978;DHT22;39886;47.984;-1.586;2023-10-08T07:58:50;19.20;68.00
53978;DHT22;39886;47.984;-1.586;2023-10-08T08:01:15;19.20;68.00
53978;DHT22;39886;47.984;-1.586;2023-10-08T08:03:41;19.30;68.00
53978;DHT22;39886;47.984;-1.586;2023-10-08T08:06:07;19.20;68.00
53978;DHT22;39886;47.984;-1.586;2023-10-08T08:08:34;19.30;68.00
53978;DHT22;39886;47.984;-1.586;2023-10-08T08:11:02;19.30;68.70
53978;DHT22;39886;47.984;-1.586;2023-10-08T08:13:39;19.30;68.00
53978;DHT22;39886;47.984;-1.586;2023-10-08T08:16:08;19.30;68.00
53978;DHT22;39886;47.984;-1.586;2023-10-08T08:18:47;19.30;68.00
53978;DHT22;39886;47.984;-1.586;2023-10-08T08:21:14;19.30;68.00
53978;DHT22;39886;47.984;-1.586;2023-10-08T08:23:44;19.30;68.00
53978;DHT22;39886;47.984;-1.586;2023-10-08T08:26:14;19.30;68.00
53978;DHT22;39886;47.984;-1.586;2023-10-08T08:28:55;19.30;67.90
53978;DHT22;39886;47.984;-1.586;2023-10-08T08:31:22;19.30;67.90
53978;DHT22;39886;47.984;-1.586;2023-10-08T08:33:48;19.30;67.90
53978;DHT22;39886;47.984;-1.586;2023-10-08T08:36:27;19.30;67.90
53978;DHT22;39886;47.984;-1.586;2023-10-08T08:38:53;19.40;67.90
53978;DHT22;39886;47.984;-1.586;2023-10-08T08:41:19;19.40;67.90
53978;DHT22;39886;47.984;-1.586;2023-10-08T08:43:49;19.40;67.90
53978;DHT22;39886;47.984;-1.586;2023-10-08T08:46:24;19.40;67.90
53978;DHT22;39886;47.984;-1.586;2023-10-08T08:48:51;19.40;67.90
53978;DHT22;39886;47.984;-1.586;2023-10-08T08:51:18;19.40;67.90
53978;DHT22;39886;47.984;-1.586;2023-10-08T08:53:45;19.40;67.80
53978;DHT22;39886;47.984;-1.586;2023-10-08T08:56:11;19.40;67.90
53978;DHT22;39886;47.984;-1.586;2023-10-08T08:58:38;19.50;67.90
53978;DHT22;39886;47.984;-1.586;2023-10-08T09:01:05;19.50;67.80
53978;DHT22;39886;47.984;-1.586;2023-10-08T09:03:31;19.50;67.80
53978;DHT22;39886;47.984;-1.586;2023-10-08T09:05:57;19.50;67.80
53978;DHT22;39886;47.984;-1.586;2023-10-08T09:08:25;19.50;67.70
53978;DHT22;39886;47.984;-1.586;2023-10-08T09:10:52;19.50;67.70
53978;DHT22;39886;47.984;-1.586;2023-10-08T09:13:27;19.50;67.70
53978;DHT22;39886;47.984;-1.586;2023-10-08T09:15:56;19.50;67.70
53978;DHT22;39886;47.984;-1.586;2023-10-08T09:18:23;19.60;67.70
53978;DHT22;39886;47.984;-1.586;2023-10-08T09:20:49;19.60;67.70
53978;DHT22;39886;47.984;-1.586;2023-10-08T09:23:15;19.60;67.70
53978;DHT22;39886;47.984;-1.586;2023-10-08T09:25:43;19.60;67.70
53978;DHT22;39886;47.984;-1.586;2023-10-08T09:28:09;19.60;67.60
53978;DHT22;39886;47.984;-1.586;2023-10-08T09:30:38;19.60;67.60
53978;DHT22;39886;47.984;-1.586;2023-10-08T09:33:05;19.60;67.60
53978;DHT22;39886;47.984;-1.586;2023-10-08T09:35:32;19.60;67.50
53978;DHT22;39886;47.984;-1.586;2023-10-08T09:37:59;19.60;67.50
53978;DHT22;39886;47.984;-1.586;2023-10-08T09:40:25;19.70;67.60
53978;DHT22;39886;47.984;-1.586;2023-10-08T09:42:51;19.70;67.50
53978;DHT22;39886;47.984;-1.586;2023-10-08T09:45:17;19.70;67.50
53978;DHT22;39886;47.984;-1.586;2023-10-08T09:47:43;19.70;67.50
53978;DHT22;39886;47.984;-1.586;2023-10-08T09:50:14;19.70;67.50
53978;DHT22;39886;47.984;-1.586;2023-10-08T09:55:12;19.70;67.40
53978;DHT22;39886;47.984;-1.586;2023-10-08T09:57:39;19.80;67.40
53978;DHT22;39886;47.984;-1.586;2023-10-08T10:00:05;19.80;67.40
53978;DHT22;39886;47.984;-1.586;2023-10-08T10:02:36;19.80;67.40
53978;DHT22;39886;47.984;-1.586;2023-10-08T10:05:02;19.80;67.40
53978;DHT22;39886;47.984;-1.586;2023-10-08T10:07:28;19.80;67.40
53978;DHT22;39886;47.984;-1.586;2023-10-08T10:09:55;19.80;67.30
53978;DHT22;39886;47.984;-1.586;2023-10-08T10:12:25;19.80;67.30
53978;DHT22;39886;47.984;-1.586;2023-10-08T10:14:54;19.90;67.30
53978;DHT22;39886;47.984;-1.586;2023-10-08T10:17:25;19.90;67.30
53978;DHT22;39886;47.984;-1.586;2023-10-08T10:19:57;19.90;67.30
53978;DHT22;39886;47.984;-1.586;2023-10-08T10:22:29;19.90;67.20
53978;DHT22;39886;47.984;-1.586;2023-10-08T10:24:56;19.90;67.20
53978;DHT22;39886;47.984;-1.586;2023-10-08T10:27:21;19.90;67.10
53978;DHT22;39886;47.984;-1.586;2023-10-08T10:29:47;20.00;67.10
53978;DHT22;39886;47.984;-1.586;2023-10-08T10:32:14;20.00;67.20
53978;DHT22;39886;47.984;-1.586;2023-10-08T10:34:44;20.00;67.10
53978;DHT22;39886;47.984;-1.586;2023-10-08T10:37:12;20.00;66.90
53978;DHT22;39886;47.984;-1.586;2023-10-08T10:40:05;20.00;66.90
53978;DHT22;39886;47.984;-1.586;2023-10-08T10:42:35;20.00;66.90
53978;DHT22;39886;47.984;-1.586;2023-10-08T10:45:17;20.10;66.70
53978;DHT22;39886;47.984;-1.586;2023-10-08T10:48:21;20.10;66.70
53978;DHT22;39886;47.984;-1.586;2023-10-08T10:50:47;20.10;66.70
53978;DHT22;39886;47.984;-1.586;2023-10-08T10:53:38;20.10;66.70
53978;DHT22;39886;47.984;-1.586;2023-10-08T10:56:23;20.10;66.50
53978;DHT22;39886;47.984;-1.586;2023-10-08T10:59:01;20.20;66.50
53978;DHT22;39886;47.984;-1.586;2023-10-08T11:01:41;20.20;66.40
53978;DHT22;39886;47.984;-1.586;2023-10-08T11:04:12;20.20;66.40
53978;DHT22;39886;47.984;-1.586;2023-10-08T11:06:57;20.20;66.30
53978;DHT22;39886;47.984;-1.586;2023-10-08T11:09:24;20.30;66.30
53978;DHT22;39886;47.984;-1.586;2023-10-08T11:12:10;20.30;66.20
53978;DHT22;39886;47.984;-1.586;2023-10-08T11:14:38;20.30;66.20
53978;DHT22;39886;47.984;-1.586;2023-10-08T11:17:13;20.30;66.10
53978;DHT22;39886;47.984;-1.586;2023-10-08T11:19:41;20.30;66.10
53978;DHT22;39886;47.984;-1.586;2023-10-08T11:22:08;20.30;66.00
53978;DHT22;39886;47.984;-1.586;2023-10-08T11:24:41;20.30;66.00
53978;DHT22;39886;47.984;-1.586;2023-10-08T11:27:08;20.30;66.00
53978;DHT22;39886;47.984;-1.586;2023-10-08T11:29:46;20.40;66.00
53978;DHT22;39886;47.984;-1.586;2023-10-08T11:32:15;20.40;65.90
53978;DHT22;39886;47.984;-1.586;2023-10-08T11:34:46;20.40;65.90
53978;DHT22;39886;47.984;-1.586;2023-10-08T11:37:15;20.40;65.80
53978;DHT22;39886;47.984;-1.586;2023-10-08T11:39:51;20.50;65.80
53978;DHT22;39886;47.984;-1.586;2023-10-08T11:42:18;20.50;65.80
53978;DHT22;39886;47.984;-1.586;2023-10-08T11:45:04;20.50;65.70
53978;DHT22;39886;47.984;-1.586;2023-10-08T11:47:50;20.50;65.70
53978;DHT22;39886;47.984;-1.586;2023-10-08T11:50:26;20.50;65.60
53978;DHT22;39886;47.984;-1.586;2023-10-08T11:52:58;20.60;65.50
53978;DHT22;39886;47.984;-1.586;2023-10-08T11:55:28;20.60;65.50
53978;DHT22;39886;47.984;-1.586;2023-10-08T11:57:54;20.60;65.50
53978;DHT22;39886;47.984;-1.586;2023-10-08T12:00:19;20.60;65.40
53978;DHT22;39886;47.984;-1.586;2023-10-08T12:02:46;20.60;65.40
53978;DHT22;39886;47.984;-1.586;2023-10-08T12:05:11;20.60;65.30
53978;DHT22;39886;47.984;-1.586;2023-10-08T12:07:49;20.60;65.30
53978;DHT22;39886;47.984;-1.586;2023-10-08T12:10:19;20.70;65.30
53978;DHT22;39886;47.984;-1.586;2023-10-08T12:12:49;20.70;65.30
53978;DHT22;39886;47.984;-1.586;2023-10-08T12:15:15;20.70;65.20
53978;DHT22;39886;47.984;-1.586;2023-10-08T12:17:46;20.70;65.10
53978;DHT22;39886;47.984;-1.586;2023-10-08T12:20:18;20.70;65.10
53978;DHT22;39886;47.984;-1.586;2023-10-08T12:22:51;20.80;65.10
53978;DHT22;39886;47.984;-1.586;2023-10-08T12:25:16;20.80;65.00
53978;DHT22;39886;47.984;-1.586;2023-10-08T12:27:42;20.80;65.00
53978;DHT22;39886;47.984;-1.586;2023-10-08T12:30:08;20.80;64.90
53978;DHT22;39886;47.984;-1.586;2023-10-08T12:32:38;20.80;64.90
53978;DHT22;39886;47.984;-1.586;2023-10-08T12:35:08;20.80;64.90
53978;DHT22;39886;47.984;-1.586;2023-10-08T12:37:38;20.80;64.80
53978;DHT22;39886;47.984;-1.586;2023-10-08T12:40:05;20.90;64.80
53978;DHT22;39886;47.984;-1.586;2023-10-08T12:42:37;20.90;64.70
53978;DHT22;39886;47.984;-1.586;2023-10-08T12:45:04;20.90;64.60
53978;DHT22;39886;47.984;-1.586;2023-10-08T12:47:38;20.90;64.70
53978;DHT22;39886;47.984;-1.586;2023-10-08T12:50:03;20.90;64.60
53978;DHT22;39886;47.984;-1.586;2023-10-08T12:52:33;21.00;64.70
53978;DHT22;39886;47.984;-1.586;2023-10-08T12:55:00;20.90;64.50
53978;DHT22;39886;47.984;-1.586;2023-10-08T12:57:32;21.00;64.50
53978;DHT22;39886;47.984;-1.586;2023-10-08T13:00:00;21.00;64.50
53978;DHT22;39886;47.984;-1.586;2023-10-08T13:02:25;21.00;64.50
53978;DHT22;39886;47.984;-1.586;2023-10-08T13:04:55;21.00;64.40
53978;DHT22;39886;47.984;-1.586;2023-10-08T13:07:22;21.00;64.40
53978;DHT22;39886;47.984;-1.586;2023-10-08T13:09:48;21.00;64.50
53978;DHT22;39886;47.984;-1.586;2023-10-08T13:12:13;21.00;64.40
53978;DHT22;39886;47.984;-1.586;2023-10-08T13:14:41;21.00;64.40
53978;DHT22;39886;47.984;-1.586;2023-10-08T13:17:10;21.00;64.40
53978;DHT22;39886;47.984;-1.586;2023-10-08T13:19:36;21.00;64.30
53978;DHT22;39886;47.984;-1.586;2023-10-08T13:22:02;21.10;64.30
53978;DHT22;39886;47.984;-1.586;2023-10-08T13:24:32;21.20;64.00
53978;DHT22;39886;47.984;-1.586;2023-10-08T13:26:58;21.20;63.70
53978;DHT22;39886;47.984;-1.586;2023-10-08T13:29:24;21.20;63.90
53978;DHT22;39886;47.984;-1.586;2023-10-08T13:31:52;21.10;64.00
53978;DHT22;39886;47.984;-1.586;2023-10-08T13:34:19;21.10;64.00
53978;DHT22;39886;47.984;-1.586;2023-10-08T13:36:46;21.10;64.00
53978;DHT22;39886;47.984;-1.586;2023-10-08T13:39:14;21.10;64.00
53978;DHT22;39886;47.984;-1.586;2023-10-08T13:41:46;21.10;64.10
53978;DHT22;39886;47.984;-1.586;2023-10-08T13:44:17;21.10;64.00
53978;DHT22;39886;47.984;-1.586;2023-10-08T13:46:44;21.10;64.00
53978;DHT22;39886;47.984;-1.586;2023-10-08T13:49:14;21.20;64.10
53978;DHT22;39886;47.984;-1.586;2023-10-08T13:51:41;21.30;63.70
53978;DHT22;39886;47.984;-1.586;2023-10-08T13:54:09;21.70;62.20
53978;DHT22;39886;47.984;-1.586;2023-10-08T13:56:36;21.90;61.90
53978;DHT22;39886;47.984;-1.586;2023-10-08T13:59:03;21.90;61.80
53978;DHT22;39886;47.984;-1.586;2023-10-08T14:01:31;21.80;62.00
53978;DHT22;39886;47.984;-1.586;2023-10-08T14:03:59;21.70;62.40
53978;DHT22;39886;47.984;-1.586;2023-10-08T14:06:33;21.70;62.50
53978;DHT22;39886;47.984;-1.586;2023-10-08T14:09:00;21.70;62.40
53978;DHT22;39886;47.984;-1.586;2023-10-08T14:11:26;21.80;62.10
53978;DHT22;39886;47.984;-1.586;2023-10-08T14:13:56;22.00;61.70
53978;DHT22;39886;47.984;-1.586;2023-10-08T14:16:21;21.90;61.90
53978;DHT22;39886;47.984;-1.586;2023-10-08T14:18:52;21.80;62.10
53978;DHT22;39886;47.984;-1.586;2023-10-08T14:21:22;21.80;62.20
53978;DHT22;39886;47.984;-1.586;2023-10-08T14:23:58;21.70;62.30
53978;DHT22;39886;47.984;-1.586;2023-10-08T14:26:28;21.70;62.50
53978;DHT22;39886;47.984;-1.586;2023-10-08T14:29:00;21.70;62.60
53978;DHT22;39886;47.984;-1.586;2023-10-08T14:31:33;21.70;62.70
53978;DHT22;39886;47.984;-1.586;2023-10-08T14:33:59;21.60;62.70
53978;DHT22;39886;47.984;-1.586;2023-10-08T14:36:33;21.60;62.70
53978;DHT22;39886;47.984;-1.586;2023-10-08T14:39:18;21.60;62.80
53978;DHT22;39886;47.984;-1.586;2023-10-08T14:42:02;21.60;62.90
53978;DHT22;39886;47.984;-1.586;2023-10-08T14:44:46;21.60;63.00
53978;DHT22;39886;47.984;-1.586;2023-10-08T14:47:12;21.60;63.00
53978;DHT22;39886;47.984;-1.586;2023-10-08T14:49:38;21.50;63.00
53978;DHT22;39886;47.984;-1.586;2023-10-08T14:52:04;21.60;63.10
53978;DHT22;39886;47.984;-1.586;2023-10-08T14:54:30;21.50;63.10
53978;DHT22;39886;47.984;-1.586;2023-10-08T14:56:56;21.50;63.10
53978;DHT22;39886;47.984;-1.586;2023-10-08T14:59:22;21.50;63.10
53978;DHT22;39886;47.984;-1.586;2023-10-08T15:01:49;21.50;63.20
53978;DHT22;39886;47.984;-1.586;2023-10-08T15:04:15;21.50;63.20
53978;DHT22;39886;47.984;-1.586;2023-10-08T15:06:41;21.50;63.20
53978;DHT22;39886;47.984;-1.586;2023-10-08T15:09:08;21.50;63.90
53978;DHT22;39886;47.984;-1.586;2023-10-08T15:11:34;21.50;63.30
53978;DHT22;39886;47.984;-1.586;2023-10-08T15:14:02;21.50;63.30
53978;DHT22;39886;47.984;-1.586;2023-10-08T15:16:27;21.50;63.40
53978;DHT22;39886;47.984;-1.586;2023-10-08T15:18:53;21.40;63.30
53978;DHT22;39886;47.984;-1.586;2023-10-08T15:21:19;21.40;63.40
53978;DHT22;39886;47.984;-1.586;2023-10-08T15:23:44;21.40;63.40
53978;DHT22;39886;47.984;-1.586;2023-10-08T15:26:11;21.40;63.40
53978;DHT22;39886;47.984;-1.586;2023-10-08T15:28:37;21.50;63.50
53978;DHT22;39886;47.984;-1.586;2023-10-08T15:31:04;21.40;63.50
53978;DHT22;39886;47.984;-1.586;2023-10-08T15:33:30;21.40;63.50
53978;DHT22;39886;47.984;-1.586;2023-10-08T15:35:55;21.40;63.50
53978;DHT22;39886;47.984;-1.586;2023-10-08T15:38:22;21.40;63.50
53978;DHT22;39886;47.984;-1.586;2023-10-08T15:40:48;21.40;63.60
53978;DHT22;39886;47.984;-1.586;2023-10-08T15:43:14;21.40;63.60
53978;DHT22;39886;47.984;-1.586;2023-10-08T15:45:40;21.40;63.60
53978;DHT22;39886;47.984;-1.586;2023-10-08T15:48:07;21.40;63.70
53978;DHT22;39886;47.984;-1.586;2023-10-08T15:50:33;21.40;63.70
53978;DHT22;39886;47.984;-1.586;2023-10-08T15:52:59;21.40;63.70